INFORMAÇÕES DO AERODROMO
Icao Aerodromo FMMI Nome do Aerodromo Ivato Airport Cidade Antananarivo
Código GPS FMMI Elevação Média 4198 ft Tipo de Aerodromo Aeroporto Médio Porte

INFORMAÇÃO DE PISTA
Pista 11 Comprimento da Pista 10171 ft Largura da Pista 148 ft
Elevação da Pista 4197 ft Distância de Area de Escape da Pista 0 ft Orientação da Pista 99
Pista 29 Comprimento da Pista 10171 ft Largura da Pista 148 ft
Elevação da Pista 4117 ft Distância de Area de Escape da Pista 0 ft Orientação da Pista 279

FREQUÊNCIAS DO AERODROMO
Tipo TWR Nome TWR Frequência 120.1 MHZ

INFORMAÇÕES DE NAVEGAÇÃO PRÓXIMO AO AERODROMO
Tipo VOR-DME Nome Ivato Frequência 114500 KHZ

Informações de Meteorologia(METAR atual)
METAR DE FMMI
ADDS - METARS form results

(1358 UTC 11 April 2021)
Data provider http://aviationweather.gov/metar/data/
 
METAR text: FMMI 111330Z 14007KT 100V180 9999 FEW020 23/15 Q1021 NOSIG
Conditions at: FMMI (ANTANANARIVO/IVA, KM) observed 1330 UTC 11 April 2021
Temperature: 23.0°C (73°F)
Dewpoint: 15.0°C (59°F) [RH = 61%]
Pressure (altimeter): 30.15 inches Hg (1021.0 mb)
Winds: from the SE (140 degrees) at 8 MPH (7 knots; 3.6 m/s)
Visibility: 6 or more miles (10+ km)
Ceiling: at least 12,000 feet AGL
Clouds: few clouds at 2000 feet AGL
Weather: no significant weather observed at this time

METAR text: FMMI 111300Z 15008KT 120V200 9999 FEW020 23/15 Q1021 NOSIG
Conditions at: FMMI (ANTANANARIVO/IVA, KM) observed 1300 UTC 11 April 2021
Temperature: 23.0°C (73°F)
Dewpoint: 15.0°C (59°F) [RH = 61%]
Pressure (altimeter): 30.15 inches Hg (1021.0 mb)
Winds: from the SSE (150 degrees) at 9 MPH (8 knots; 4.1 m/s)
Visibility: 6 or more miles (10+ km)
Ceiling: at least 12,000 feet AGL
Clouds: few clouds at 2000 feet AGL
Weather: no significant weather observed at this time

Forecast for: FMMI (ANTANANARIVO/IVA, KM)
Text: TAF FMMI 111100Z 1112/1218 14008KT 9999 SCT020 SCT023
Forecast period: 1200 UTC 11 April 2021 to 1800 UTC 12 April 2021
Forecast type: FROM: standard forecast or significant change
Winds: from the SE (140 degrees) at 9 MPH (8 knots; 4.1 m/s)
Visibility: 6 or more miles (10+ km)
Ceiling: at least 12,000 feet AGL
Clouds: scattered clouds at 2000 feet AGL
scattered clouds at 2300 feet AGL
Weather: no significant weather forecast for this period

MAPA DO AERODROMO


Desenvolvido por Virtual Airlines Manager




Modificado por Grupo Brasil Amigos